createdAt,value
2023-07-30T00:00:50.597Z,99470.94
2023-07-30T00:03:18.687Z,99472.72
2023-07-30T00:05:56.428Z,99469.69
2023-07-30T00:08:24.746Z,99480.63
2023-07-30T00:10:52.283Z,99483.25
2023-07-30T00:13:19.932Z,99477.16
2023-07-30T00:15:48.291Z,99482.25
2023-07-30T00:18:16.584Z,99474.00
2023-07-30T00:20:44.576Z,99466.44
2023-07-30T00:23:12.418Z,99466.72
2023-07-30T00:25:39.900Z,99467.03
2023-07-30T00:28:07.590Z,99469.03
2023-07-30T00:30:35.410Z,99468.63
2023-07-30T00:33:03.020Z,99468.00
2023-07-30T00:37:58.420Z,99471.34
2023-07-30T00:40:25.993Z,99470.62
2023-07-30T00:42:53.623Z,99470.75
2023-07-30T00:45:21.605Z,99459.44
2023-07-30T00:47:49.180Z,99457.78
2023-07-30T00:50:19.475Z,99457.97
2023-07-30T00:52:47.318Z,99462.00
2023-07-30T00:55:15.537Z,99447.34
2023-07-30T00:57:44.185Z,99440.53
2023-07-30T01:00:12.819Z,99443.56
2023-07-30T01:02:45.980Z,99436.63
2023-07-30T01:05:14.273Z,99433.75
2023-07-30T01:07:41.755Z,99439.47
2023-07-30T01:10:09.442Z,99453.47
2023-07-30T01:12:37.726Z,99450.59
2023-07-30T01:15:07.150Z,99448.66
2023-07-30T01:17:35.310Z,99442.47
2023-07-30T01:20:04.145Z,99441.47
2023-07-30T01:22:31.798Z,99424.47
2023-07-30T01:24:59.284Z,99422.69
2023-07-30T01:27:33.192Z,99408.50
2023-07-30T01:30:14.632Z,99403.16
2023-07-30T01:32:43.076Z,99402.34
2023-07-30T01:35:11.538Z,99395.28
2023-07-30T01:37:40.296Z,99396.63
2023-07-30T01:40:09.121Z,99381.28
2023-07-30T01:42:36.885Z,99392.75
2023-07-30T01:45:05.976Z,99389.53
2023-07-30T01:47:34.004Z,99393.09
2023-07-30T01:50:01.525Z,99388.03
2023-07-30T01:52:29.720Z,99392.91
2023-07-30T01:54:59.592Z,99390.19
2023-07-30T01:57:27.108Z,99390.75
2023-07-30T01:59:54.727Z,99395.09
2023-07-30T02:02:22.756Z,99387.00
2023-07-30T02:04:50.777Z,99389.19
2023-07-30T02:07:18.292Z,99389.69
2023-07-30T02:09:46.335Z,99393.06
2023-07-30T02:12:14.044Z,99390.56
2023-07-30T02:14:41.891Z,99392.66
2023-07-30T02:17:09.770Z,99393.03
2023-07-30T02:19:37.281Z,99396.38
2023-07-30T02:22:05.224Z,99392.66
2023-07-30T02:24:34.454Z,99388.97
2023-07-30T02:27:02.090Z,99385.91
2023-07-30T02:29:29.983Z,99393.47
2023-07-30T02:31:58.113Z,99390.13
2023-07-30T02:34:25.746Z,99381.19
2023-07-30T02:36:53.469Z,99395.38
2023-07-30T02:39:21.710Z,99393.66
2023-07-30T02:41:49.247Z,99392.84
2023-07-30T02:44:17.178Z,99399.56
2023-07-30T02:46:45.053Z,99404.09
2023-07-30T02:49:12.629Z,99403.44
2023-07-30T02:51:40.448Z,99409.28
2023-07-30T02:54:08.991Z,99398.69
2023-07-30T02:56:36.645Z,99396.34
2023-07-30T02:59:04.351Z,99388.91
2023-07-30T03:01:32.199Z,99393.25
2023-07-30T03:03:59.689Z,99397.81
2023-07-30T03:06:27.315Z,99393.28
2023-07-30T03:08:55.451Z,99401.00
2023-07-30T03:11:23.797Z,99396.63
2023-07-30T03:13:51.537Z,99390.56
2023-07-30T03:16:19.328Z,99393.94
2023-07-30T03:18:46.843Z,99389.19
2023-07-30T03:21:14.330Z,99394.91
2023-07-30T03:23:44.471Z,99401.00
2023-07-30T03:26:12.817Z,99403.66
2023-07-30T03:28:41.113Z,99403.16
2023-07-30T03:31:09.211Z,99407.72
2023-07-30T03:33:36.977Z,99408.38
2023-07-30T03:36:04.681Z,99407.84
2023-07-30T03:38:32.907Z,99413.16
2023-07-30T03:41:00.831Z,99405.84
2023-07-30T03:43:28.494Z,99407.00
2023-07-30T03:45:56.508Z,99409.41
2023-07-30T03:48:24.083Z,99408.81
2023-07-30T03:50:51.762Z,99409.72
2023-07-30T03:53:19.653Z,99406.50
2023-07-30T03:55:47.293Z,99408.56
2023-07-30T03:58:15.009Z,99420.19
2023-07-30T04:00:43.443Z,99414.47
2023-07-30T04:03:11.381Z,99418.81
2023-07-30T04:05:38.940Z,99419.81
2023-07-30T04:08:07.174Z,99422.22
2023-07-30T04:10:35.097Z,99429.94
2023-07-30T04:13:03.033Z,99435.09
2023-07-30T04:15:30.763Z,99431.38
2023-07-30T04:17:58.722Z,99430.84
2023-07-30T04:20:26.317Z,99439.16
2023-07-30T04:22:55.920Z,99429.22
2023-07-30T04:25:23.867Z,99435.66
2023-07-30T04:27:51.805Z,99436.19
2023-07-30T04:30:20.937Z,99431.56
2023-07-30T04:32:49.056Z,99432.88
2023-07-30T04:35:16.958Z,99435.72
2023-07-30T04:37:44.470Z,99440.91
2023-07-30T04:40:12.765Z,99435.84
2023-07-30T04:42:40.291Z,99441.22
2023-07-30T04:45:08.232Z,99437.28
2023-07-30T04:47:36.636Z,99435.13
2023-07-30T04:50:04.405Z,99437.66
2023-07-30T04:52:32.128Z,99437.78
2023-07-30T04:55:00.197Z,99432.25
2023-07-30T04:57:28.148Z,99445.44
2023-07-30T04:59:55.782Z,99450.00
2023-07-30T05:02:23.644Z,99456.25
2023-07-30T05:04:51.721Z,99451.19
2023-07-30T05:07:19.213Z,99447.34
2023-07-30T05:09:47.071Z,99448.53
2023-07-30T05:12:14.523Z,99462.22
2023-07-30T05:14:41.982Z,99460.34
2023-07-30T05:17:09.879Z,99459.47
2023-07-30T05:19:37.307Z,99452.56
2023-07-30T05:22:06.999Z,99450.34
2023-07-30T05:24:35.172Z,99438.00
2023-07-30T05:27:02.637Z,99443.72
2023-07-30T05:29:30.427Z,99435.63
2023-07-30T05:31:58.381Z,99431.03
2023-07-30T05:34:25.988Z,99431.22
2023-07-30T05:36:53.574Z,99431.72
2023-07-30T05:39:21.578Z,99436.97
2023-07-30T05:41:49.086Z,99442.34
2023-07-30T05:44:16.544Z,99446.06
2023-07-30T05:46:49.174Z,99439.34
2023-07-30T05:49:16.746Z,99443.25
2023-07-30T05:51:44.629Z,99444.22
2023-07-30T05:54:13.358Z,99447.81
2023-07-30T05:56:40.806Z,99445.59
2023-07-30T05:59:08.581Z,99446.06
2023-07-30T06:01:36.541Z,99452.16
2023-07-30T06:04:07.814Z,99454.13
2023-07-30T06:06:35.335Z,99457.44
2023-07-30T06:09:02.935Z,99455.84
2023-07-30T06:11:30.832Z,99457.19
2023-07-30T06:13:58.421Z,99462.31
2023-07-30T06:16:26.034Z,99460.87
2023-07-30T06:18:53.966Z,99458.56
2023-07-30T06:21:21.636Z,99457.50
2023-07-30T06:23:49.152Z,99453.09
2023-07-30T06:26:16.915Z,99454.00
2023-07-30T06:28:44.395Z,99458.91
2023-07-30T06:31:11.940Z,99448.16
2023-07-30T06:33:40.070Z,99455.06
2023-07-30T06:36:07.695Z,99442.38
2023-07-30T06:38:38.124Z,99451.81
2023-07-30T06:41:06.344Z,99452.59
2023-07-30T06:43:33.770Z,99442.06
2023-07-30T06:46:01.367Z,99451.19
2023-07-30T06:48:32.392Z,99449.47
2023-07-30T06:51:00.289Z,99452.28
2023-07-30T06:53:27.952Z,99448.78
2023-07-30T06:55:55.758Z,99454.78
2023-07-30T06:58:23.281Z,99451.53
2023-07-30T07:00:50.761Z,99458.50
2023-07-30T07:03:19.048Z,99468.91
2023-07-30T07:05:54.259Z,99485.19
2023-07-30T07:08:22.691Z,99484.56
2023-07-30T07:10:50.641Z,99485.41
2023-07-30T07:13:25.535Z,99495.47
2023-07-30T07:22:56.316Z,99517.28
2023-07-30T07:25:25.240Z,99526.22
2023-07-30T07:28:11.796Z,99528.75
2023-07-30T07:30:53.496Z,99526.75
2023-07-30T07:33:39.107Z,99529.44
2023-07-30T07:36:30.312Z,99528.59
2023-07-30T07:39:04.476Z,99533.97
2023-07-30T07:41:32.895Z,99538.53
2023-07-30T07:44:00.633Z,99527.22
2023-07-30T07:46:29.790Z,99535.84
2023-07-30T07:49:08.179Z,99530.56
2023-07-30T07:51:38.841Z,99533.97
2023-07-30T07:54:08.142Z,99542.78
2023-07-30T07:56:35.876Z,99549.19
2023-07-30T07:59:17.241Z,99553.41
2023-07-30T08:01:45.244Z,99555.94
2023-07-30T08:04:13.419Z,99551.53
2023-07-30T08:06:41.198Z,99551.03
2023-07-30T08:09:08.741Z,99553.31
2023-07-30T08:11:39.365Z,99551.44
2023-07-30T08:14:07.297Z,99553.97
2023-07-30T08:16:35.192Z,99560.41
2023-07-30T08:19:03.672Z,99558.84
2023-07-30T08:21:31.202Z,99553.81
2023-07-30T08:23:58.857Z,99556.63
2023-07-30T08:26:26.705Z,99560.31
2023-07-30T08:28:54.373Z,99554.78
2023-07-30T08:31:22.071Z,99559.81
2023-07-30T08:33:50.042Z,99551.03
2023-07-30T08:36:17.606Z,99554.03
2023-07-30T08:38:45.089Z,99555.91
2023-07-30T08:41:13.445Z,99547.34
2023-07-30T08:43:41.181Z,99547.28
2023-07-30T08:46:10.609Z,99542.91
2023-07-30T08:52:43.779Z,99550.34
2023-07-30T08:55:12.323Z,99549.97
2023-07-30T08:57:41.088Z,99538.50
2023-07-30T09:00:10.502Z,99546.59
2023-07-30T09:02:49.543Z,99550.03
2023-07-30T09:05:17.340Z,99546.81
2023-07-30T09:07:45.831Z,99541.91
2023-07-30T09:10:14.100Z,99547.06
2023-07-30T09:12:41.814Z,99547.88
2023-07-30T09:15:09.991Z,99541.97
2023-07-30T09:17:39.288Z,99551.44
2023-07-30T09:20:07.671Z,99554.69
2023-07-30T09:22:42.052Z,99557.94
2023-07-30T09:25:10.187Z,99565.69
2023-07-30T09:27:38.553Z,99544.19
2023-07-30T09:30:07.217Z,99555.81
2023-07-30T09:32:36.416Z,99550.13
2023-07-30T09:35:08.411Z,99552.16
2023-07-30T09:37:41.131Z,99555.75
2023-07-30T09:40:11.361Z,99548.16
2023-07-30T09:42:41.880Z,99546.16
2023-07-30T09:45:17.899Z,99550.72
2023-07-30T09:47:49.467Z,99543.78
2023-07-30T09:50:17.490Z,99548.50
2023-07-30T09:52:45.852Z,99541.44
2023-07-30T09:55:13.663Z,99547.50
2023-07-30T09:57:41.556Z,99541.75
2023-07-30T10:00:10.288Z,99539.91
2023-07-30T10:02:44.360Z,99539.53
2023-07-30T10:05:15.967Z,99550.87
2023-07-30T10:07:59.352Z,99546.66
2023-07-30T10:10:29.004Z,99556.94
2023-07-30T10:13:00.443Z,99552.59
2023-07-30T10:15:28.170Z,99552.91
2023-07-30T10:17:59.497Z,99547.50
2023-07-30T10:20:30.510Z,99547.81
2023-07-30T10:22:59.813Z,99553.25
2023-07-30T10:25:31.836Z,99556.09
2023-07-30T10:27:59.919Z,99555.94
2023-07-30T10:30:32.296Z,99552.53
2023-07-30T10:33:01.555Z,99543.09
2023-07-30T10:35:39.974Z,99538.88
2023-07-30T10:38:18.085Z,99527.91
2023-07-30T10:41:02.377Z,99532.97
2023-07-30T10:43:38.469Z,99536.94
2023-07-30T10:46:06.955Z,99531.19
2023-07-30T10:48:36.751Z,99523.84
2023-07-30T10:51:06.491Z,99529.59
2023-07-30T10:53:36.954Z,99529.22
2023-07-30T10:56:05.531Z,99534.16
2023-07-30T10:58:36.201Z,99543.09
2023-07-30T11:01:05.454Z,99541.91
2023-07-30T11:03:33.975Z,99542.94
2023-07-30T11:06:02.596Z,99542.09
2023-07-30T11:08:37.672Z,99532.31
2023-07-30T11:11:06.632Z,99523.50
2023-07-30T11:13:39.007Z,99528.25
2023-07-30T11:16:07.709Z,99533.12
2023-07-30T11:18:36.744Z,99540.25
2023-07-30T11:21:11.598Z,99537.53
2023-07-30T11:23:42.720Z,99549.38
2023-07-30T11:26:16.139Z,99530.59
2023-07-30T11:28:44.399Z,99531.97
2023-07-30T11:31:12.981Z,99534.84
2023-07-30T11:33:48.160Z,99538.38
2023-07-30T11:36:23.764Z,99538.38
2023-07-30T11:38:54.196Z,99540.41
2023-07-30T11:41:24.412Z,99539.03
2023-07-30T11:43:52.979Z,99547.16
2023-07-30T11:46:24.074Z,99545.44
2023-07-30T11:48:54.649Z,99544.81
2023-07-30T11:51:30.092Z,99537.88
2023-07-30T11:54:02.693Z,99540.66
2023-07-30T11:56:31.580Z,99539.31
2023-07-30T11:59:06.308Z,99544.19
2023-07-30T12:01:36.687Z,99530.78
2023-07-30T12:04:07.347Z,99536.09
2023-07-30T12:06:45.267Z,99526.22
2023-07-30T12:09:20.116Z,99531.59
2023-07-30T12:11:52.930Z,99534.75
2023-07-30T12:14:23.906Z,99528.56
2023-07-30T12:16:51.376Z,99531.03
2023-07-30T12:19:19.027Z,99528.31
2023-07-30T12:21:46.993Z,99526.19
2023-07-30T12:24:15.151Z,99526.44
2023-07-30T12:26:42.625Z,99520.37
2023-07-30T12:29:10.733Z,99522.19
2023-07-30T12:31:38.709Z,99514.94
2023-07-30T12:34:06.736Z,99512.28
2023-07-30T12:36:34.779Z,99506.25
2023-07-30T12:39:02.386Z,99505.31
2023-07-30T12:41:30.042Z,99500.25
2023-07-30T12:43:58.489Z,99504.38
2023-07-30T12:46:31.073Z,99495.72
2023-07-30T12:49:05.451Z,99484.59
2023-07-30T12:51:33.889Z,99492.78
2023-07-30T12:54:02.248Z,99483.16
2023-07-30T12:56:29.911Z,99481.63
2023-07-30T12:58:57.489Z,99473.50
2023-07-30T13:01:25.468Z,99476.53
2023-07-30T13:03:55.732Z,99469.09
2023-07-30T13:06:23.737Z,99459.00
2023-07-30T13:08:51.807Z,99448.12
2023-07-30T13:11:19.386Z,99450.09
2023-07-30T13:13:47.055Z,99448.78
2023-07-30T13:16:15.045Z,99443.72
2023-07-30T13:18:42.575Z,99446.66
2023-07-30T13:21:10.104Z,99441.69
2023-07-30T13:23:37.879Z,99445.78
2023-07-30T13:26:05.402Z,99448.19
2023-07-30T13:28:32.943Z,99444.94
2023-07-30T13:31:00.975Z,99441.72
2023-07-30T13:33:28.664Z,99436.09
2023-07-30T13:35:56.206Z,99433.50
2023-07-30T13:38:26.482Z,99425.28
2023-07-30T13:40:54.438Z,99418.28
2023-07-30T13:43:22.320Z,99423.97
2023-07-30T13:45:51.446Z,99424.25
2023-07-30T13:48:21.114Z,99420.69
2023-07-30T13:50:48.750Z,99414.91
2023-07-30T13:53:16.638Z,99412.50
2023-07-30T13:55:44.496Z,99405.22
2023-07-30T13:58:12.766Z,99404.38
2023-07-30T14:00:43.421Z,99394.94
2023-07-30T14:03:12.901Z,99398.69
2023-07-30T14:05:40.530Z,99387.03
2023-07-30T14:08:08.170Z,99383.28
2023-07-30T14:10:36.077Z,99388.22
2023-07-30T14:13:03.603Z,99386.56
2023-07-30T14:15:32.639Z,99397.00
2023-07-30T14:18:00.510Z,99389.78
2023-07-30T14:20:28.153Z,99383.87
2023-07-30T14:22:55.939Z,99378.81
2023-07-30T14:25:24.041Z,99376.28
2023-07-30T14:27:51.711Z,99369.00
2023-07-30T14:30:19.543Z,99373.53
2023-07-30T14:32:47.702Z,99373.72
2023-07-30T14:35:15.560Z,99360.87
2023-07-30T14:37:43.095Z,99348.62
2023-07-30T14:40:12.503Z,99361.72
2023-07-30T14:42:41.237Z,99357.75
2023-07-30T14:45:09.557Z,99355.09
2023-07-30T14:47:37.475Z,99354.41
2023-07-30T14:50:06.158Z,99358.22
2023-07-30T14:52:33.978Z,99354.41
2023-07-30T14:55:01.854Z,99342.84
2023-07-30T14:57:29.393Z,99350.03
2023-07-30T14:59:56.884Z,99346.88
2023-07-30T15:02:24.833Z,99355.66
2023-07-30T15:04:52.667Z,99359.88
2023-07-30T15:07:20.220Z,99355.72
2023-07-30T15:09:48.201Z,99340.88
2023-07-30T15:12:15.757Z,99338.00
2023-07-30T15:14:43.378Z,99344.03
2023-07-30T15:17:11.242Z,99336.50
2023-07-30T15:19:40.753Z,99329.75
2023-07-30T15:22:08.395Z,99324.72
2023-07-30T15:24:38.467Z,99316.28
2023-07-30T15:27:07.318Z,99319.84
2023-07-30T15:29:34.831Z,99323.41
2023-07-30T15:32:03.446Z,99316.47
2023-07-30T15:34:31.031Z,99304.97
2023-07-30T15:37:00.337Z,99298.94
2023-07-30T15:39:28.282Z,99297.03
2023-07-30T15:41:55.796Z,99303.62
2023-07-30T15:44:23.391Z,99309.19
2023-07-30T15:46:51.540Z,99313.75
2023-07-30T15:49:20.842Z,99325.34
2023-07-30T15:51:48.471Z,99326.06
2023-07-30T15:54:16.956Z,99328.06
2023-07-30T15:56:44.499Z,99327.16
2023-07-30T15:59:12.174Z,99325.06
2023-07-30T16:01:40.573Z,99339.84
2023-07-30T16:04:08.744Z,99337.13
2023-07-30T16:06:36.702Z,99340.06
2023-07-30T16:09:04.518Z,99344.72
2023-07-30T16:11:34.588Z,99344.81
2023-07-30T16:14:02.182Z,99339.38
2023-07-30T16:16:29.885Z,99342.53
2023-07-30T16:18:59.042Z,99343.50
2023-07-30T16:21:27.093Z,99339.00
2023-07-30T16:23:54.783Z,99338.72
2023-07-30T16:26:23.029Z,99343.88
2023-07-30T16:28:50.705Z,99343.09
2023-07-30T16:31:18.353Z,99346.75
2023-07-30T16:33:46.458Z,99347.72
2023-07-30T16:36:14.027Z,99361.44
2023-07-30T16:38:41.787Z,99350.53
2023-07-30T16:41:10.514Z,99342.91
2023-07-30T16:43:38.122Z,99346.47
2023-07-30T16:46:05.757Z,99342.19
2023-07-30T16:48:33.836Z,99342.12
2023-07-30T16:51:01.503Z,99349.91
2023-07-30T16:53:29.341Z,99353.53
2023-07-30T16:55:57.499Z,99355.59
2023-07-30T16:58:25.563Z,99354.56
2023-07-30T17:01:04.864Z,99362.09
2023-07-30T17:03:34.946Z,99368.13
2023-07-30T17:06:03.115Z,99372.75
2023-07-30T17:08:31.073Z,99379.38
2023-07-30T17:11:04.626Z,99386.88
2023-07-30T17:13:32.227Z,99382.16
2023-07-30T17:16:05.657Z,99388.63
2023-07-30T17:18:33.366Z,99400.13
2023-07-30T17:21:01.959Z,99400.19
2023-07-30T17:23:29.673Z,99404.59
2023-07-30T17:25:59.589Z,99414.37
2023-07-30T17:28:30.070Z,99412.47
2023-07-30T17:30:58.067Z,99404.19
2023-07-30T17:33:26.026Z,99410.66
2023-07-30T17:35:54.140Z,99398.63
2023-07-30T17:38:21.939Z,99395.50
2023-07-30T17:40:56.418Z,99405.44
2023-07-30T17:43:25.060Z,99407.47
2023-07-30T17:45:52.761Z,99416.16
2023-07-30T17:48:20.423Z,99417.16
2023-07-30T17:50:49.389Z,99416.78
2023-07-30T17:53:19.181Z,99425.59
2023-07-30T17:55:47.610Z,99425.09
2023-07-30T17:58:15.528Z,99417.75
2023-07-30T18:00:48.589Z,99417.59
2023-07-30T18:03:16.928Z,99430.91
2023-07-30T18:05:49.097Z,99439.06
2023-07-30T18:08:18.237Z,99428.13
2023-07-30T18:10:48.028Z,99425.25
2023-07-30T18:13:16.632Z,99428.16
2023-07-30T18:15:45.478Z,99431.28
2023-07-30T18:18:14.735Z,99435.09
2023-07-30T18:20:42.839Z,99435.25
2023-07-30T18:23:10.817Z,99426.69
2023-07-30T18:25:38.447Z,99426.84
2023-07-30T18:28:06.962Z,99436.31
2023-07-30T18:30:36.788Z,99432.91
2023-07-30T18:33:07.586Z,99441.34
2023-07-30T18:35:38.664Z,99437.16
2023-07-30T18:38:06.291Z,99448.50
2023-07-30T18:40:37.812Z,99443.78
2023-07-30T18:43:06.853Z,99442.94
2023-07-30T18:45:35.589Z,99446.16
2023-07-30T18:48:03.987Z,99457.28
2023-07-30T18:50:32.856Z,99454.25
2023-07-30T18:53:02.662Z,99471.66
2023-07-30T18:55:30.210Z,99472.19
2023-07-30T18:57:58.309Z,99490.41
2023-07-30T19:00:25.909Z,99492.09
2023-07-30T19:02:55.610Z,99503.22
2023-07-30T19:05:23.667Z,99499.50
2023-07-30T19:07:51.285Z,99512.44
2023-07-30T19:10:20.562Z,99504.50
2023-07-30T19:12:48.556Z,99508.75
2023-07-30T19:15:16.391Z,99520.06
2023-07-30T19:17:44.000Z,99527.13
2023-07-30T19:20:12.188Z,99530.50
2023-07-30T19:22:39.719Z,99521.72
2023-07-30T19:25:07.882Z,99515.34
2023-07-30T19:27:35.801Z,99514.56
2023-07-30T19:30:03.603Z,99514.44
2023-07-30T19:32:31.621Z,99509.84
2023-07-30T19:34:59.510Z,99508.09
2023-07-30T19:37:26.991Z,99501.06
2023-07-30T19:39:56.889Z,99505.81
2023-07-30T19:42:24.887Z,99507.16
2023-07-30T19:44:52.824Z,99511.41
2023-07-30T19:47:23.787Z,99514.94
2023-07-30T19:49:52.333Z,99508.19
2023-07-30T19:52:20.413Z,99507.66
2023-07-30T19:54:47.967Z,99507.47
2023-07-30T19:57:15.863Z,99503.75
2023-07-30T19:59:43.370Z,99507.00
2023-07-30T20:02:10.955Z,99501.19
2023-07-30T20:04:39.393Z,99504.03
2023-07-30T20:07:07.054Z,99506.47
2023-07-30T20:09:34.585Z,99500.88
2023-07-30T20:12:02.488Z,99496.25
2023-07-30T20:14:30.206Z,99496.31
2023-07-30T20:16:57.852Z,99496.88
2023-07-30T20:19:25.704Z,99496.88
2023-07-30T20:21:54.002Z,99496.50
2023-07-30T20:24:21.746Z,99496.94
2023-07-30T20:26:49.867Z,99499.56
2023-07-30T20:29:19.277Z,99491.16
2023-07-30T20:31:46.852Z,99497.47
2023-07-30T20:34:14.777Z,99498.50
2023-07-30T20:36:42.469Z,99497.78
2023-07-30T20:39:10.131Z,99497.06
2023-07-30T20:41:38.065Z,99508.81
2023-07-30T20:44:05.608Z,99510.97
2023-07-30T20:46:33.209Z,99517.03
2023-07-30T20:49:01.104Z,99519.72
2023-07-30T20:51:29.639Z,99519.34
2023-07-30T20:53:57.159Z,99527.94
2023-07-30T20:56:25.259Z,99524.44
2023-07-30T20:58:53.070Z,99532.97
2023-07-30T21:01:20.617Z,99528.16
2023-07-30T21:03:48.574Z,99537.69
2023-07-30T21:06:16.156Z,99541.59
2023-07-30T21:08:46.114Z,99536.66
2023-07-30T21:11:13.967Z,99547.28
2023-07-30T21:13:41.490Z,99550.56
2023-07-30T21:16:09.055Z,99542.09
2023-07-30T21:18:36.940Z,99554.53
2023-07-30T21:21:04.511Z,99562.25
2023-07-30T21:23:32.313Z,99555.09
2023-07-30T21:26:01.430Z,99548.78
2023-07-30T21:28:28.976Z,99553.59
2023-07-30T21:31:06.858Z,99562.62
2023-07-30T21:33:36.217Z,99559.91
2023-07-30T21:36:05.175Z,99558.91
2023-07-30T21:38:32.912Z,99565.84
2023-07-30T21:41:00.926Z,99576.47
2023-07-30T21:43:32.221Z,99567.91
2023-07-30T21:46:00.892Z,99567.28
2023-07-30T21:48:28.799Z,99566.59
2023-07-30T21:51:05.862Z,99567.06
2023-07-30T21:53:33.654Z,99564.16
2023-07-30T21:56:02.824Z,99568.91
2023-07-30T21:58:30.451Z,99577.00
2023-07-30T22:00:59.354Z,99569.28
2023-07-30T22:03:27.927Z,99566.22
2023-07-30T22:05:55.933Z,99572.84
2023-07-30T22:08:23.528Z,99576.06
2023-07-30T22:10:51.473Z,99575.38
2023-07-30T22:13:19.692Z,99575.38
2023-07-30T22:15:47.968Z,99568.31
2023-07-30T22:18:16.383Z,99564.91
2023-07-30T22:20:44.208Z,99573.28
2023-07-30T22:23:11.900Z,99575.97
2023-07-30T22:25:39.643Z,99582.03
2023-07-30T22:28:10.077Z,99580.59
2023-07-30T22:30:41.838Z,99581.44
2023-07-30T22:33:10.732Z,99581.00
2023-07-30T22:35:38.392Z,99581.28
2023-07-30T22:38:06.215Z,99570.91
2023-07-30T22:40:34.151Z,99570.69
2023-07-30T22:43:01.824Z,99577.06
2023-07-30T22:45:29.444Z,99564.78
2023-07-30T22:47:57.524Z,99565.53
2023-07-30T22:50:25.242Z,99567.59
2023-07-30T22:52:52.719Z,99565.28
2023-07-30T22:55:20.625Z,99557.50
2023-07-30T22:57:48.278Z,99559.31
2023-07-30T23:00:15.780Z,99551.69
2023-07-30T23:02:56.466Z,99556.50
2023-07-30T23:05:24.174Z,99560.25
2023-07-30T23:07:52.140Z,99557.72
2023-07-30T23:10:21.127Z,99557.75
2023-07-30T23:12:48.651Z,99559.00
2023-07-30T23:15:16.697Z,99567.09
2023-07-30T23:17:44.319Z,99565.41
2023-07-30T23:20:12.066Z,99563.00
2023-07-30T23:22:39.935Z,99567.09
2023-07-30T23:25:07.854Z,99569.94
2023-07-30T23:27:35.312Z,99577.94
2023-07-30T23:30:03.188Z,99571.66
2023-07-30T23:32:30.737Z,99563.31
2023-07-30T23:34:58.267Z,99566.56
2023-07-30T23:37:26.833Z,99560.84
2023-07-30T23:39:54.442Z,99562.09
2023-07-30T23:42:21.945Z,99564.09
2023-07-30T23:44:49.810Z,99558.22
2023-07-30T23:47:18.470Z,99562.00
2023-07-30T23:49:46.101Z,99561.25
2023-07-30T23:52:14.113Z,99559.25
2023-07-30T23:54:41.754Z,99554.53
2023-07-30T23:57:09.715Z,99560.38
2023-07-30T23:59:37.733Z,99561.69
